Time;durP1;ratioP1;P1;durP2;ratioP2;P2;SDS_P1;SDS_P2;PMS_P1;PMS_P2;Temp;Humidity;BMP_temperature;BMP_pressure;BME280_temperature;BME280_humidity;BME280_pressure;Samples;Min_cycle;Max_cycle;Signal;HPM_P1;HPM_P2
2022/10/01 00:01:49;;;;;;;;;;;;;;;;;;5031519;28;19959;-57
2022/10/01 00:04:15;;;;;;;;;;;;;;;;;;5033997;28;19913;-58
2022/10/01 00:06:40;;;;;;;;;;;;;;;;;;5032703;28;20393;-58
2022/10/01 00:09:05;;;;;;;;;;;;;;;;;;5032857;28;20394;-58
2022/10/01 00:11:32;;;;;;;;;;;;;;;;;;5032338;28;19924;-58
2022/10/01 00:13:58;;;;;;;;;;;;;;;;;;5033640;28;19912;-58
2022/10/01 00:16:24;;;;;;;;;;;;;;;;;;5030120;28;19917;-58
2022/10/01 00:18:52;;;;;;;;;;;;;;;;;;5035329;28;20346;-58
2022/10/01 00:21:19;;;;;;;;;;;;;;;;;;5032925;28;20371;-58
2022/10/01 00:23:44;;;;;;;;;;;;;;;;;;5036854;28;19913;-58
2022/10/01 00:26:10;;;;;;;;;;;;;;;;;;5034632;28;19988;-58
2022/10/01 00:28:35;;;;;;;;;;;;;;;;;;5035179;28;20287;-58
2022/10/01 00:31:01;;;;;;;;;;;;;;;;;;5030665;28;20004;-58
2022/10/01 00:33:26;;;;;;;;;;;;;;;;;;5034402;28;19920;-58
2022/10/01 00:35:55;;;;;;;;;;;;;;;;;;5035079;28;19916;-58
2022/10/01 00:38:20;;;;;;;;;;;;;;;;;;5038770;28;19912;-59
2022/10/01 00:40:46;;;;;;;;;;;;;;;;;;5038126;28;19917;-58
2022/10/01 00:43:24;;;;;;;;;;;;;;;;;;5031403;28;20404;-58
2022/10/01 00:45:53;;;;;;;;;;;;;;;;;;5035682;28;19916;-58
2022/10/01 00:48:19;;;;;;;;;;;;;;;;;;5036413;28;20400;-58
2022/10/01 00:50:47;;;;;;;;;;;;;;;;;;5043425;28;19916;-59
2022/10/01 00:53:13;;;;;;;;;;;;;;;;;;5037877;28;19919;-58
2022/10/01 00:55:50;;;;;;;;;;;;;;;;;;5031519;28;19912;-58
2022/10/01 00:58:17;;;;;;;;;;;;;;;;;;5031116;28;19924;-58
2022/10/01 01:00:42;;;;;;;;;;;;;;;;;;5033528;28;19962;-58
2022/10/01 01:03:08;;;;;;;;;;;;;;;;;;5029051;28;19917;-58
2022/10/01 01:05:33;;;;;;;;;;;;;;;;;;5031464;28;19913;-58
2022/10/01 01:08:01;;;;;;;;;;;;;;;;;;5031767;28;19919;-58
2022/10/01 01:10:27;;;;;;;;;;;;;;;;;;5030987;28;19917;-58
2022/10/01 01:12:58;;;;;;;;;;;;;;;;;;5029245;28;19963;-58
2022/10/01 01:15:44;;;;;;;;;;;;;;;;;;5050874;28;19924;-58
2022/10/01 01:18:21;;;;;;;;;;;;;;;;;;5028856;28;19921;-58
2022/10/01 01:20:49;;;;;;;;;;;;;;;;;;5032753;28;20354;-58
2022/10/01 01:23:17;;;;;;;;;;;;;;;;;;5031965;28;19913;-58
2022/10/01 01:26:01;;;;;;;;;;;;;;;;;;5036815;28;20007;-58
2022/10/01 01:28:32;;;;;;;;;;;;;;;;;;5033159;28;19917;-58
2022/10/01 01:31:04;;;;;;;;;;;;;;;;;;5027860;28;19921;-58
2022/10/01 01:33:31;;;;;;;;;;;;;;;;;;5034797;28;19912;-58
2022/10/01 01:35:58;;;;;;;;;;;;;;;;;;5031848;28;19920;-58
2022/10/01 01:38:28;;;;;;;;;;;;;;;;;;5034612;28;20011;-58
2022/10/01 01:40:56;;;;;;;;;;;;;;;;;;5036643;28;20401;-58
2022/10/01 01:43:23;;;;;;;;;;;;;;;;;;5039144;28;19920;-58
2022/10/01 01:45:51;;;;;;;;;;;;;;;;;;5025310;28;19979;-58
2022/10/01 01:48:16;;;;;;;;;;;;;;;;;;5031510;28;20397;-58
2022/10/01 01:50:56;;;;;;;;;;;;;;;;;;5031380;28;19929;-58
2022/10/01 01:53:22;;;;;;;;;;;;;;;;;;5029508;28;19913;-58
2022/10/01 01:55:48;;;;;;;;;;;;;;;;;;5037167;28;20443;-58
2022/10/01 01:58:14;;;;;;;;;;;;;;;;;;5030181;28;19955;-58
2022/10/01 02:00:39;;;;;;;;;;;;;;;;;;5029131;28;19939;-58
2022/10/01 02:03:05;;;;;;;;;;;;;;;;;;5029799;28;19913;-58
2022/10/01 02:05:36;;;;;;;;;;;;;;;;;;5031397;28;20363;-58
2022/10/01 02:08:06;;;;;;;;;;;;;;;;;;5034133;28;20371;-58
2022/10/01 02:10:31;;;;;;;;;;;;;;;;;;5032258;28;19917;-58
2022/10/01 02:13:00;;;;;;;;;;;;;;;;;;5032927;28;19959;-58
2022/10/01 02:15:35;;;;;;;;;;;;;;;;;;5030583;28;19988;-58
2022/10/01 02:18:10;;;;;;;;;;;;;;;;;;5033104;28;20310;-58
2022/10/01 02:20:41;;;;;;;;;;;;;;;;;;5035514;28;19952;-58
2022/10/01 02:23:10;;;;;;;;;;;;;;;;;;5031937;28;19920;-58
2022/10/01 02:25:43;;;;;;;;;;;;;;;;;;5035302;28;19956;-58
2022/10/01 02:28:11;;;;;;;;;;;;;;;;;;5033163;28;19913;-58
2022/10/01 02:30:37;;;;;;;;;;;;;;;;;;5029618;28;19964;-58
2022/10/01 02:33:03;;;;;;;;;;;;;;;;;;5036626;28;19924;-58
2022/10/01 02:35:30;;;;;;;;;;;;;;;;;;5033070;28;19921;-58
2022/10/01 02:37:56;;;;;;;;;;;;;;;;;;5031601;28;20290;-58
2022/10/01 02:40:26;;;;;;;;;;;;;;;;;;5035036;28;19916;-58
2022/10/01 02:42:53;;;;;;;;;;;;;;;;;;5031517;28;19920;-58
2022/10/01 02:45:21;;;;;;;;;;;;;;;;;;5028572;28;20383;-58
2022/10/01 02:47:49;;;;;;;;;;;;;;;;;;5035326;28;19917;-58
2022/10/01 02:50:14;;;;;;;;;;;;;;;;;;5033339;28;19917;-58
2022/10/01 02:52:54;;;;;;;;;;;;;;;;;;5032575;28;19920;-58
2022/10/01 02:55:30;;;;;;;;;;;;;;;;;;5030863;28;19959;-58
2022/10/01 02:57:56;;;;;;;;;;;;;;;;;;5028877;28;19917;-58
2022/10/01 03:00:21;;;;;;;;;;;;;;;;;;5025714;28;19936;-58
2022/10/01 03:02:47;;;;;;;;;;;;;;;;;;5028168;28;20371;-58
2022/10/01 03:05:14;;;;;;;;;;;;;;;;;;5030844;28;20069;-58
2022/10/01 03:07:39;;;;;;;;;;;;;;;;;;5029678;28;19913;-58
2022/10/01 03:10:05;;;;;;;;;;;;;;;;;;5029630;28;19917;-58
2022/10/01 03:12:31;;;;;;;;;;;;;;;;;;5029789;28;20643;-58
2022/10/01 03:14:57;;;;;;;;;;;;;;;;;;5028231;28;19917;-58
2022/10/01 03:17:22;;;;;;;;;;;;;;;;;;5031375;28;19920;-58
2022/10/01 03:19:47;;;;;;;;;;;;;;;;;;5032078;28;19913;-58
2022/10/01 03:22:14;;;;;;;;;;;;;;;;;;5031315;28;19932;-58
2022/10/01 03:24:40;;;;;;;;;;;;;;;;;;5031063;28;19913;-58
2022/10/01 03:27:05;;;;;;;;;;;;;;;;;;5038844;28;19959;-58
2022/10/01 03:29:30;;;;;;;;;;;;;;;;;;5039494;28;19921;-58
2022/10/01 03:31:56;;;;;;;;;;;;;;;;;;5039371;28;19913;-58
2022/10/01 03:34:21;;;;;;;;;;;;;;;;;;5040255;28;20335;-58
2022/10/01 03:36:47;;;;;;;;;;;;;;;;;;5037593;28;20176;-58
2022/10/01 03:39:12;;;;;;;;;;;;;;;;;;5049898;28;20011;-58
2022/10/01 03:41:38;;;;;;;;;;;;;;;;;;5034961;28;19917;-58
2022/10/01 03:44:03;;;;;;;;;;;;;;;;;;5036512;28;19921;-58
2022/10/01 03:46:29;;;;;;;;;;;;;;;;;;5034032;28;20482;-58
2022/10/01 03:48:56;;;;;;;;;;;;;;;;;;5036704;28;19920;-58
2022/10/01 03:51:21;;;;;;;;;;;;;;;;;;5040622;28;19926;-58
2022/10/01 03:53:46;;;;;;;;;;;;;;;;;;5041170;28;19912;-58
2022/10/01 03:56:12;;;;;;;;;;;;;;;;;;5034667;28;19917;-58
2022/10/01 03:58:37;;;;;;;;;;;;;;;;;;5035151;28;19966;-58
2022/10/01 04:01:03;;;;;;;;;;;;;;;;;;5034766;28;19966;-58
2022/10/01 04:03:29;;;;;;;;;;;;;;;;;;5035465;28;20454;-58
2022/10/01 04:05:55;;;;;;;;;;;;;;;;;;5036856;28;19919;-58
2022/10/01 04:08:20;;;;;;;;;;;;;;;;;;5037323;28;19913;-58
2022/10/01 04:10:45;;;;;;;;;;;;;;;;;;5041612;28;20294;-58
2022/10/01 04:13:11;;;;;;;;;;;;;;;;;;5036227;28;19929;-58
2022/10/01 04:15:37;;;;;;;;;;;;;;;;;;5032112;28;20395;-58
2022/10/01 04:18:04;;;;;;;;;;;;;;;;;;5035236;28;19955;-57
2022/10/01 04:20:30;;;;;;;;;;;;;;;;;;5038110;28;20306;-57
2022/10/01 04:22:55;;;;;;;;;;;;;;;;;;5037405;28;19913;-57
2022/10/01 04:25:20;;;;;;;;;;;;;;;;;;5037226;28;20003;-57
2022/10/01 04:27:56;;;;;;;;;;;;;;;;;;5033726;28;20418;-58
2022/10/01 04:30:21;;;;;;;;;;;;;;;;;;5046790;28;19917;-57
2022/10/01 04:32:47;;;;;;;;;;;;;;;;;;5036800;28;19913;-57
2022/10/01 04:35:12;;;;;;;;;;;;;;;;;;5039649;28;19916;-57
2022/10/01 04:37:37;;;;;;;;;;;;;;;;;;5037675;28;19912;-57
2022/10/01 04:40:03;;;;;;;;;;;;;;;;;;5041562;28;19916;-57
2022/10/01 04:42:28;;;;;;;;;;;;;;;;;;5039615;28;19912;-57
2022/10/01 04:44:53;;;;;;;;;;;;;;;;;;5037907;28;19924;-57
2022/10/01 04:47:18;;;;;;;;;;;;;;;;;;5031837;28;19920;-57
2022/10/01 04:49:44;;;;;;;;;;;;;;;;;;5030493;28;19924;-57
2022/10/01 04:52:09;;;;;;;;;;;;;;;;;;5032026;28;19912;-57
2022/10/01 04:54:34;;;;;;;;;;;;;;;;;;5032160;28;19917;-57
2022/10/01 04:57:00;;;;;;;;;;;;;;;;;;5032800;28;19925;-58
2022/10/01 04:59:25;;;;;;;;;;;;;;;;;;5032814;28;19913;-58
2022/10/01 05:01:50;;;;;;;;;;;;;;;;;;5031773;28;20416;-57
2022/10/01 05:04:15;;;;;;;;;;;;;;;;;;5030855;28;19932;-60
2022/10/01 05:06:41;;;;;;;;;;;;;;;;;;5031704;28;19912;-60
2022/10/01 05:09:06;;;;;;;;;;;;;;;;;;5037800;28;19912;-60
2022/10/01 05:11:33;;;;;;;;;;;;;;;;;;5032044;28;19963;-61
2022/10/01 05:13:59;;;;;;;;;;;;;;;;;;5033652;28;19960;-60
2022/10/01 05:16:24;;;;;;;;;;;;;;;;;;5032267;28;19921;-60
2022/10/01 05:18:49;;;;;;;;;;;;;;;;;;5037500;28;19974;-59
2022/10/01 05:21:15;;;;;;;;;;;;;;;;;;5033608;28;19917;-60
2022/10/01 05:23:41;;;;;;;;;;;;;;;;;;5033058;28;19913;-60
2022/10/01 05:26:06;;;;;;;;;;;;;;;;;;5032059;28;19970;-60
2022/10/01 05:28:32;;;;;;;;;;;;;;;;;;5032481;28;19938;-60
2022/10/01 05:30:59;;;;;;;;;;;;;;;;;;5063545;28;19928;-59
2022/10/01 05:33:25;;;;;;;;;;;;;;;;;;5030712;28;19912;-60
2022/10/01 05:35:51;;;;;;;;;;;;;;;;;;5036424;28;19920;-60
2022/10/01 05:38:16;;;;;;;;;;;;;;;;;;5031749;28;19913;-59
2022/10/01 05:40:44;;;;;;;;;;;;;;;;;;5034013;28;20342;-60
2022/10/01 05:43:09;;;;;;;;;;;;;;;;;;5037756;28;20400;-60
2022/10/01 05:45:34;;;;;;;;;;;;;;;;;;5034210;28;19952;-59
2022/10/01 05:48:01;;;;;;;;;;;;;;;;;;5035128;28;19956;-60
2022/10/01 05:50:30;;;;;;;;;;;;;;;;;;5032226;28;19923;-60
2022/10/01 05:52:55;;;;;;;;;;;;;;;;;;5031352;28;19982;-60
2022/10/01 05:55:21;;;;;;;;;;;;;;;;;;5031602;28;19917;-60
2022/10/01 05:57:53;;;;;;;;;;;;;;;;;;5029731;28;20359;-60
2022/10/01 06:00:19;;;;;;;;;;;;;;;;;;5030707;28;19913;-60
2022/10/01 06:02:48;;;;;;;;;;;;;;;;;;5029733;28;19913;-59
2022/10/01 06:05:13;;;;;;;;;;;;;;;;;;5030882;28;20352;-59
2022/10/01 06:07:39;;;;;;;;;;;;;;;;;;5031156;28;19999;-60
2022/10/01 06:10:04;;;;;;;;;;;;;;;;;;5030880;28;19917;-59
2022/10/01 06:12:29;;;;;;;;;;;;;;;;;;5030957;28;20200;-60
2022/10/01 06:14:55;;;;;;;;;;;;;;;;;;5037650;28;19913;-60
2022/10/01 06:17:20;;;;;;;;;;;;;;;;;;5033009;28;19968;-60
2022/10/01 06:19:45;;;;;;;;;;;;;;;;;;5032308;28;19951;-59
2022/10/01 06:22:10;;;;;;;;;;;;;;;;;;5030920;28;19920;-59
2022/10/01 06:24:36;;;;;;;;;;;;;;;;;;5033294;28;19913;-58
2022/10/01 06:27:01;;;;;;;;;;;;;;;;;;5030077;28;19920;-60
2022/10/01 06:29:26;;;;;;;;;;;;;;;;;;5035913;28;19913;-58
2022/10/01 06:31:52;;;;;;;;;;;;;;;;;;5030360;28;20000;-60
2022/10/01 06:34:17;;;;;;;;;;;;;;;;;;5036876;28;19912;-59
2022/10/01 06:36:42;;;;;;;;;;;;;;;;;;5034627;28;19951;-59
2022/10/01 06:39:07;;;;;;;;;;;;;;;;;;5033459;28;20370;-59
2022/10/01 06:41:33;;;;;;;;;;;;;;;;;;5031182;28;19917;-59
2022/10/01 06:43:58;;;;;;;;;;;;;;;;;;5035806;28;19913;-59
2022/10/01 06:46:23;;;;;;;;;;;;;;;;;;5036132;28;20310;-60
2022/10/01 06:48:49;;;;;;;;;;;;;;;;;;5034152;28;19913;-60
2022/10/01 06:51:14;;;;;;;;;;;;;;;;;;5039515;28;20380;-61
2022/10/01 06:53:39;;;;;;;;;;;;;;;;;;5029004;28;19912;-61
2022/10/01 06:56:05;;;;;;;;;;;;;;;;;;5029493;28;20003;-61
2022/10/01 06:58:31;;;;;;;;;;;;;;;;;;5029828;28;20047;-62
2022/10/01 07:00:57;;;;;;;;;;;;;;;;;;5028309;28;20015;-62
2022/10/01 07:03:22;;;;;;;;;;;;;;;;;;5029182;28;19983;-62
2022/10/01 07:05:48;;;;;;;;;;;;;;;;;;5031774;28;19982;-62
2022/10/01 07:08:13;;;;;;;;;;;;;;;;;;5031056;28;19924;-62
2022/10/01 07:10:39;;;;;;;;;;;;;;;;;;5029224;28;19917;-62
2022/10/01 07:13:07;;;;;;;;;;;;;;;;;;5030386;28;20275;-62
2022/10/01 07:15:32;;;;;;;;;;;;;;;;;;5031586;28;19967;-62
2022/10/01 07:17:58;;;;;;;;;;;;;;;;;;5031715;28;19913;-62
2022/10/01 07:20:23;;;;;;;;;;;;;;;;;;5036166;28;19916;-62
2022/10/01 07:22:48;;;;;;;;;;;;;;;;;;5031049;28;19931;-62
2022/10/01 07:25:14;;;;;;;;;;;;;;;;;;5033675;28;19921;-61
2022/10/01 07:27:39;;;;;;;;;;;;;;;;;;5030578;28;19970;-62
2022/10/01 07:30:05;;;;;;;;;;;;;;;;;;5031231;28;19963;-62
2022/10/01 07:32:31;;;;;;;;;;;;;;;;;;5029403;28;19917;-62
2022/10/01 07:34:56;;;;;;;;;;;;;;;;;;5033753;28;19935;-61
2022/10/01 07:37:22;;;;;;;;;;;;;;;;;;5035574;28;19912;-62
2022/10/01 07:39:47;;;;;;;;;;;;;;;;;;5033136;28;19928;-62
2022/10/01 07:42:12;;;;;;;;;;;;;;;;;;5030129;28;19913;-61
2022/10/01 07:44:38;;;;;;;;;;;;;;;;;;5030769;28;19940;-62
2022/10/01 07:47:03;;;;;;;;;;;;;;;;;;5033511;28;19923;-62
2022/10/01 07:49:28;;;;;;;;;;;;;;;;;;5028870;28;19913;-62
2022/10/01 07:51:54;;;;;;;;;;;;;;;;;;5025716;28;19939;-62
2022/10/01 07:54:20;;;;;;;;;;;;;;;;;;5029293;28;20291;-63
2022/10/01 07:56:47;;;;;;;;;;;;;;;;;;5027447;28;19913;-62
2022/10/01 07:59:12;;;;;;;;;;;;;;;;;;5028694;28;19913;-63
2022/10/01 08:01:37;;;;;;;;;;;;;;;;;;5027568;28;19913;-62
2022/10/01 08:05:16;;;;;;;;;;;;;;;;;;5029331;28;19913;-63
2022/10/01 08:06:49;;;;;;;;;;;;;;;;;;5029392;28;20357;-62
2022/10/01 08:09:14;;;;;;;;;;;;;;;;;;5031660;28;19997;-61
2022/10/01 08:11:40;;;;;;;;;;;;;;;;;;5029867;28;19924;-61
2022/10/01 08:14:05;;;;;;;;;;;;;;;;;;5034355;28;20290;-62
2022/10/01 08:16:32;;;;;;;;;;;;;;;;;;5032682;28;19962;-61
2022/10/01 08:18:58;;;;;;;;;;;;;;;;;;5034870;28;19916;-61
2022/10/01 08:21:23;;;;;;;;;;;;;;;;;;5032186;28;20490;-61
2022/10/01 08:23:49;;;;;;;;;;;;;;;;;;5036908;28;19951;-61
2022/10/01 08:26:14;;;;;;;;;;;;;;;;;;5034885;28;19978;-61
2022/10/01 08:28:39;;;;;;;;;;;;;;;;;;5032909;28;19920;-61
2022/10/01 08:31:08;;;;;;;;;;;;;;;;;;5032096;28;20383;-61
2022/10/01 08:33:34;;;;;;;;;;;;;;;;;;5030922;28;19923;-61
2022/10/01 08:36:01;;;;;;;;;;;;;;;;;;5035049;28;20294;-61
2022/10/01 08:38:26;;;;;;;;;;;;;;;;;;5032100;28;20341;-61
2022/10/01 08:40:51;;;;;;;;;;;;;;;;;;5033295;28;19913;-61
2022/10/01 08:43:22;;;;;;;;;;;;;;;;;;5033543;28;19913;-61
2022/10/01 08:45:50;;;;;;;;;;;;;;;;;;5035047;28;19912;-61
2022/10/01 08:48:27;;;;;;;;;;;;;;;;;;5036779;28;19991;-61
2022/10/01 08:51:11;;;;;;;;;;;;;;;;;;5030128;28;20306;-62
2022/10/01 08:53:43;;;;;;;;;;;;;;;;;;5033168;28;20062;-61
2022/10/01 08:56:26;;;;;;;;;;;;;;;;;;5033150;28;19920;-61
2022/10/01 08:58:56;;;;;;;;;;;;;;;;;;5032956;28;19920;-62
2022/10/01 09:01:22;;;;;;;;;;;;;;;;;;5030597;28;19920;-62
2022/10/01 09:03:48;;;;;;;;;;;;;;;;;;5034228;28;19936;-62
2022/10/01 09:06:21;;;;;;;;;;;;;;;;;;5031036;28;19973;-62
2022/10/01 09:09:05;;;;;;;;;;;;;;;;;;5032542;28;19919;-63
2022/10/01 09:11:48;;;;;;;;;;;;;;;;;;5033109;28;19921;-62
2022/10/01 09:14:23;;;;;;;;;;;;;;;;;;5025372;28;19917;-63
2022/10/01 09:17:00;;;;;;;;;;;;;;;;;;5031617;28;19913;-62
2022/10/01 09:19:44;;;;;;;;;;;;;;;;;;5035084;28;19932;-62
2022/10/01 09:22:12;;;;;;;;;;;;;;;;;;5024589;28;20401;-62
2022/10/01 09:24:46;;;;;;;;;;;;;;;;;;5029397;28;19917;-62
2022/10/01 09:27:15;;;;;;;;;;;;;;;;;;5035478;28;19990;-62
2022/10/01 09:29:51;;;;;;;;;;;;;;;;;;5036094;28;20305;-62
2022/10/01 09:32:19;;;;;;;;;;;;;;;;;;5035344;28;19952;-62
2022/10/01 09:34:45;;;;;;;;;;;;;;;;;;5032547;28;19917;-62
2022/10/01 09:37:17;;;;;;;;;;;;;;;;;;5036172;28;19921;-62
2022/10/01 09:39:56;;;;;;;;;;;;;;;;;;5031415;28;19916;-62
2022/10/01 09:42:23;;;;;;;;;;;;;;;;;;5032650;28;19992;-62
2022/10/01 09:44:48;;;;;;;;;;;;;;;;;;5032479;28;19988;-61
2022/10/01 09:47:17;;;;;;;;;;;;;;;;;;5034647;28;19912;-60
2022/10/01 09:49:44;;;;;;;;;;;;;;;;;;5030214;28;19959;-61
2022/10/01 09:52:17;;;;;;;;;;;;;;;;;;5030166;28;20000;-61
2022/10/01 09:54:51;;;;;;;;;;;;;;;;;;5030121;28;19924;-61
2022/10/01 09:57:23;;;;;;;;;;;;;;;;;;5029930;28;20454;-61
2022/10/01 09:59:59;;;;;;;;;;;;;;;;;;5030552;28;20008;-61
2022/10/01 10:02:27;;;;;;;;;;;;;;;;;;5029108;28;20432;-59
2022/10/01 10:05:01;;;;;;;;;;;;;;;;;;5036224;28;20313;-60
2022/10/01 10:07:28;;;;;;;;;;;;;;;;;;5029973;28;20387;-59
2022/10/01 10:09:54;;;;;;;;;;;;;;;;;;5032313;28;19933;-59
2022/10/01 10:12:37;;;;;;;;;;;;;;;;;;5030939;28;19913;-60
2022/10/01 10:15:07;;;;;;;;;;;;;;;;;;5032202;28;20348;-60
2022/10/01 10:17:34;;;;;;;;;;;;;;;;;;5033225;28;19913;-59
2022/10/01 10:20:00;;;;;;;;;;;;;;;;;;5028811;28;19919;-60
2022/10/01 10:22:26;;;;;;;;;;;;;;;;;;5035971;28;20003;-60
2022/10/01 10:24:52;;;;;;;;;;;;;;;;;;5029948;28;20336;-60
2022/10/01 10:27:28;;;;;;;;;;;;;;;;;;5034895;28;19944;-59
2022/10/01 10:30:04;;;;;;;;;;;;;;;;;;5033733;28;19971;-59
2022/10/01 10:32:30;;;;;;;;;;;;;;;;;;5028855;28;19919;-60
2022/10/01 10:34:58;;;;;;;;;;;;;;;;;;5027571;28;20259;-59
2022/10/01 10:37:26;;;;;;;;;;;;;;;;;;5028794;28;19923;-59
2022/10/01 10:39:52;;;;;;;;;;;;;;;;;;5028016;28;20384;-60
2022/10/01 10:42:18;;;;;;;;;;;;;;;;;;5028020;28;20057;-60
2022/10/01 10:44:45;;;;;;;;;;;;;;;;;;5028949;28;19915;-61
2022/10/01 10:47:13;;;;;;;;;;;;;;;;;;5033667;28;19913;-61
2022/10/01 10:49:46;;;;;;;;;;;;;;;;;;5029282;28;20007;-61
2022/10/01 10:52:32;;;;;;;;;;;;;;;;;;5028657;28;19987;-61
2022/10/01 10:54:58;;;;;;;;;;;;;;;;;;5030101;28;19945;-61
2022/10/01 10:57:30;;;;;;;;;;;;;;;;;;5035761;28;19927;-61
2022/10/01 10:59:56;;;;;;;;;;;;;;;;;;5036052;28;20283;-61
2022/10/01 11:02:22;;;;;;;;;;;;;;;;;;5034849;28;19913;-61
2022/10/01 11:04:48;;;;;;;;;;;;;;;;;;5033758;28;19913;-61
2022/10/01 11:07:18;;;;;;;;;;;;;;;;;;5030141;28;20318;-61
2022/10/01 11:09:43;;;;;;;;;;;;;;;;;;5034005;28;19978;-61
2022/10/01 11:12:19;;;;;;;;;;;;;;;;;;5031574;28;19913;-61
2022/10/01 11:14:53;;;;;;;;;;;;;;;;;;5027042;28;20311;-61
2022/10/01 11:17:21;;;;;;;;;;;;;;;;;;5030807;28;20011;-60
2022/10/01 11:19:58;;;;;;;;;;;;;;;;;;5028474;28;20371;-60
2022/10/01 11:22:30;;;;;;;;;;;;;;;;;;5026858;28;20301;-60
2022/10/01 11:25:13;;;;;;;;;;;;;;;;;;5024870;28;20276;-60
2022/10/01 11:27:39;;;;;;;;;;;;;;;;;;5029376;28;20374;-60
2022/10/01 11:30:20;;;;;;;;;;;;;;;;;;5028214;28;20007;-59
2022/10/01 11:33:10;;;;;;;;;;;;;;;;;;5057863;28;19928;-58
2022/10/01 11:35:41;;;;;;;;;;;;;;;;;;5026639;28;19913;-59
2022/10/01 11:38:26;;;;;;;;;;;;;;;;;;5035361;28;19913;-59
2022/10/01 11:40:58;;;;;;;;;;;;;;;;;;5030039;28;19913;-60
2022/10/01 11:43:29;;;;;;;;;;;;;;;;;;5027921;28;19916;-59
2022/10/01 11:46:05;;;;;;;;;;;;;;;;;;5030386;28;19913;-59
2022/10/01 11:48:34;;;;;;;;;;;;;;;;;;5032780;28;19920;-59
2022/10/01 11:51:30;;;;;;;;;;;;;;;;;;5040304;28;19920;-60
2022/10/01 11:53:57;;;;;;;;;;;;;;;;;;5028816;28;19913;-59
2022/10/01 11:59:33;;;;;;;;;;;;;;;;;;5030673;28;19932;-60
2022/10/01 12:02:07;;;;;;;;;;;;;;;;;;5029585;28;19924;-59
2022/10/01 12:04:39;;;;;;;;;;;;;;;;;;5031783;28;19924;-60
2022/10/01 12:07:12;;;;;;;;;;;;;;;;;;5028567;28;19913;-59
2022/10/01 12:09:56;;;;;;;;;;;;;;;;;;5033941;28;19927;-59
2022/10/01 12:12:21;;;;;;;;;;;;;;;;;;5034183;28;19992;-59
2022/10/01 12:14:53;;;;;;;;;;;;;;;;;;5032490;28;20069;-59
2022/10/01 12:17:26;;;;;;;;;;;;;;;;;;5031959;28;19913;-60
2022/10/01 12:19:53;;;;;;;;;;;;;;;;;;5033285;28;20027;-58
2022/10/01 12:22:30;;;;;;;;;;;;;;;;;;5037517;28;19916;-59
2022/10/01 12:24:56;;;;;;;;;;;;;;;;;;5033071;28;19948;-59
2022/10/01 12:27:46;;;;;;;;;;;;;;;;;;5037190;28;20387;-60
2022/10/01 12:30:17;;;;;;;;;;;;;;;;;;5042369;28;20370;-59
2022/10/01 12:33:05;;;;;;;;;;;;;;;;;;5032229;28;19913;-59
2022/10/01 12:35:34;;;;;;;;;;;;;;;;;;5019930;28;19920;-59
2022/10/01 12:38:18;;;;;;;;;;;;;;;;;;5035455;28;20398;-59
2022/10/01 12:40:43;;;;;;;;;;;;;;;;;;5034589;28;20007;-59
2022/10/01 12:43:41;;;;;;;;;;;;;;;;;;5033998;28;20032;-54
2022/10/01 12:46:06;;;;;;;;;;;;;;;;;;5020866;28;20004;-54
2022/10/01 12:48:34;;;;;;;;;;;;;;;;;;5031835;28;20004;-59
2022/10/01 12:51:05;;;;;;;;;;;;;;;;;;5027452;28;19921;-60
2022/10/01 12:53:37;;;;;;;;;;;;;;;;;;5030292;28;19917;-59
2022/10/01 12:56:08;;;;;;;;;;;;;;;;;;5028524;28;20405;-59
2022/10/01 12:58:36;;;;;;;;;;;;;;;;;;5031770;28;20408;-59
2022/10/01 13:01:30;;;;;;;;;;;;;;;;;;5033421;28;20465;-59
2022/10/01 13:03:56;;;;;;;;;;;;;;;;;;5025759;28;19920;-59
2022/10/01 13:06:21;;;;;;;;;;;;;;;;;;5031699;28;19909;-59
2022/10/01 13:08:53;;;;;;;;;;;;;;;;;;5035777;28;20000;-59
2022/10/01 13:11:41;;;;;;;;;;;;;;;;;;5038611;28;19916;-59
2022/10/01 13:14:11;;;;;;;;;;;;;;;;;;5031123;28;19912;-59
2022/10/01 13:16:43;;;;;;;;;;;;;;;;;;5032194;28;19923;-59
2022/10/01 13:19:18;;;;;;;;;;;;;;;;;;5034359;28;19935;-59
2022/10/01 13:21:46;;;;;;;;;;;;;;;;;;5033439;28;20363;-59
2022/10/01 13:24:31;;;;;;;;;;;;;;;;;;5034493;28;19927;-59
2022/10/01 13:27:00;;;;;;;;;;;;;;;;;;5036118;28;19916;-59
2022/10/01 13:29:25;;;;;;;;;;;;;;;;;;5035146;28;19913;-59
2022/10/01 13:31:55;;;;;;;;;;;;;;;;;;5034062;28;19921;-59
2022/10/01 13:34:24;;;;;;;;;;;;;;;;;;5037107;28;20032;-59
2022/10/01 13:36:50;;;;;;;;;;;;;;;;;;5034455;28;19913;-59
2022/10/01 13:39:31;;;;;;;;;;;;;;;;;;5030080;28;20400;-59
2022/10/01 13:41:57;;;;;;;;;;;;;;;;;;5029388;28;19983;-59
2022/10/01 13:44:33;;;;;;;;;;;;;;;;;;5031254;28;20121;-59
2022/10/01 13:47:08;;;;;;;;;;;;;;;;;;5029003;28;19920;-59
2022/10/01 13:49:35;;;;;;;;;;;;;;;;;;5031480;28;19909;-59
2022/10/01 13:52:01;;;;;;;;;;;;;;;;;;5030443;28;19917;-59
2022/10/01 13:54:38;;;;;;;;;;;;;;;;;;5030658;28;19917;-59
2022/10/01 13:57:25;;;;;;;;;;;;;;;;;;5031289;28;19913;-59
2022/10/01 14:03:05;;;;;;;;;;;;;;;;;;5031622;28;20298;-59
2022/10/01 14:05:34;;;;;;;;;;;;;;;;;;5037829;28;19920;-58
2022/10/01 14:08:22;;;;;;;;;;;;;;;;;;5036875;28;19921;-59
2022/10/01 14:16:48;;;;;;;;;;;;;;;;;;5006262;28;19913;-58
2022/10/01 14:19:18;;;;;;;;;;;;;;;;;;5007963;28;19913;-59
2022/10/01 14:21:59;;;;;;;;;;;;;;;;;;5026100;28;20339;-58
2022/10/01 14:24:43;;;;;;;;;;;;;;;;;;5030380;28;19917;-59
2022/10/01 14:27:14;;;;;;;;;;;;;;;;;;5032222;28;19920;-59
2022/10/01 14:29:39;;;;;;;;;;;;;;;;;;5030889;28;19912;-59
2022/10/01 14:32:08;;;;;;;;;;;;;;;;;;5033487;28;19920;-59
2022/10/01 14:34:48;;;;;;;;;;;;;;;;;;5033883;28;19916;-59
2022/10/01 14:37:15;;;;;;;;;;;;;;;;;;5031595;28;19924;-59
2022/10/01 14:39:41;;;;;;;;;;;;;;;;;;5030426;28;19948;-60
2022/10/01 14:42:12;;;;;;;;;;;;;;;;;;5031469;28;20014;-59
2022/10/01 14:44:42;;;;;;;;;;;;;;;;;;5027147;28;20059;-59
2022/10/01 14:47:24;;;;;;;;;;;;;;;;;;5031155;28;19924;-59
2022/10/01 14:49:50;;;;;;;;;;;;;;;;;;5028710;28;19920;-59
2022/10/01 14:52:41;;;;;;;;;;;;;;;;;;5033616;28;19912;-59
2022/10/01 14:55:12;;;;;;;;;;;;;;;;;;5027536;28;19913;-59
2022/10/01 14:57:39;;;;;;;;;;;;;;;;;;5035114;28;19913;-59
2022/10/01 15:00:09;;;;;;;;;;;;;;;;;;5031115;28;19920;-59
2022/10/01 15:02:42;;;;;;;;;;;;;;;;;;5029365;28;19921;-59
2022/10/01 15:05:17;;;;;;;;;;;;;;;;;;5030305;28;19920;-59
2022/10/01 15:07:44;;;;;;;;;;;;;;;;;;5030053;28;20369;-59
2022/10/01 15:10:14;;;;;;;;;;;;;;;;;;5030292;28;20002;-59
2022/10/01 15:12:42;;;;;;;;;;;;;;;;;;5035491;28;20336;-59
2022/10/01 15:15:23;;;;;;;;;;;;;;;;;;5027933;28;19913;-59
2022/10/01 15:17:48;;;;;;;;;;;;;;;;;;5032961;28;19913;-60
2022/10/01 15:20:14;;;;;;;;;;;;;;;;;;5033322;28;20293;-59
2022/10/01 15:22:40;;;;;;;;;;;;;;;;;;5033211;28;19920;-59
2022/10/01 15:25:06;;;;;;;;;;;;;;;;;;5028170;28;19920;-59
2022/10/01 15:27:32;;;;;;;;;;;;;;;;;;5036242;28;19916;-58
2022/10/01 15:29:57;;;;;;;;;;;;;;;;;;5031425;28;19917;-58
2022/10/01 15:32:24;;;;;;;;;;;;;;;;;;5029271;28;19924;-59
2022/10/01 15:34:53;;;;;;;;;;;;;;;;;;5026856;28;20353;-59
2022/10/01 15:37:22;;;;;;;;;;;;;;;;;;5027301;28;19959;-59
2022/10/01 15:39:49;;;;;;;;;;;;;;;;;;5026399;28;19913;-60
2022/10/01 15:42:25;;;;;;;;;;;;;;;;;;5055187;28;19920;-60
2022/10/01 15:45:09;;;;;;;;;;;;;;;;;;5027295;28;20229;-60
2022/10/01 15:47:36;;;;;;;;;;;;;;;;;;5025153;28;19921;-60
2022/10/01 15:50:14;;;;;;;;;;;;;;;;;;5027488;28;19920;-60
2022/10/01 15:52:56;;;;;;;;;;;;;;;;;;5028856;28;19913;-60
2022/10/01 15:55:24;;;;;;;;;;;;;;;;;;5030478;28;20350;-59
2022/10/01 15:57:54;;;;;;;;;;;;;;;;;;5032759;28;19912;-60
2022/10/01 16:00:27;;;;;;;;;;;;;;;;;;5028476;28;19909;-60
2022/10/01 16:02:53;;;;;;;;;;;;;;;;;;5028053;28;19912;-60
2022/10/01 16:05:20;;;;;;;;;;;;;;;;;;5029161;28;19920;-59
2022/10/01 16:07:47;;;;;;;;;;;;;;;;;;5028918;28;19913;-59
2022/10/01 16:10:26;;;;;;;;;;;;;;;;;;5025618;28;19925;-60
2022/10/01 16:12:52;;;;;;;;;;;;;;;;;;5029467;28;19928;-60
2022/10/01 16:15:27;;;;;;;;;;;;;;;;;;5029422;28;19978;-59
2022/10/01 16:18:01;;;;;;;;;;;;;;;;;;5028092;28;19948;-59
2022/10/01 16:20:44;;;;;;;;;;;;;;;;;;5031191;28;19936;-60
2022/10/01 16:23:28;;;;;;;;;;;;;;;;;;5031670;28;19970;-60
2022/10/01 16:25:53;;;;;;;;;;;;;;;;;;5031969;28;19917;-60
2022/10/01 16:28:26;;;;;;;;;;;;;;;;;;5035199;28;19913;-59
2022/10/01 16:30:51;;;;;;;;;;;;;;;;;;5030577;28;19943;-59
2022/10/01 16:33:16;;;;;;;;;;;;;;;;;;5034823;28;20358;-60
2022/10/01 16:35:44;;;;;;;;;;;;;;;;;;5031226;28;20441;-59
2022/10/01 16:38:09;;;;;;;;;;;;;;;;;;5028468;28;20302;-60
2022/10/01 16:40:39;;;;;;;;;;;;;;;;;;5029150;28;19913;-60
2022/10/01 16:43:06;;;;;;;;;;;;;;;;;;5026739;28;19939;-60
2022/10/01 16:45:39;;;;;;;;;;;;;;;;;;5031540;28;20287;-60
2022/10/01 16:48:10;;;;;;;;;;;;;;;;;;5033775;28;19913;-59
2022/10/01 16:50:35;;;;;;;;;;;;;;;;;;5032872;28;20441;-59
2022/10/01 16:53:02;;;;;;;;;;;;;;;;;;5031985;28;19913;-59
2022/10/01 16:55:34;;;;;;;;;;;;;;;;;;5033174;28;19956;-59
2022/10/01 16:58:00;;;;;;;;;;;;;;;;;;5034305;28;20008;-59
2022/10/01 17:00:26;;;;;;;;;;;;;;;;;;5034065;28;20309;-59
2022/10/01 17:02:53;;;;;;;;;;;;;;;;;;5034903;28;19919;-59
2022/10/01 17:05:24;;;;;;;;;;;;;;;;;;5030938;28;19919;-59
2022/10/01 17:07:49;;;;;;;;;;;;;;;;;;5031395;28;20378;-59
2022/10/01 17:10:15;;;;;;;;;;;;;;;;;;5032901;28;19923;-59
2022/10/01 17:12:41;;;;;;;;;;;;;;;;;;5031812;28;19913;-59